Cuyahoga County Airport Cleveland US
ICAO: KCGF
IATA: CGF
Category: Medium
Scheduled Services: No

Elevation: 879 ft
TransAlt. 18000 ft.

Airport Communications:
CLEVELAND APP/DEP:125.35
CTAF:118.5
GND/CLNC DEL:121.85
COUNTY TWR:118.5
UNICOM:122.95

KCGF Zoom In..

Runways:

(A) RW 06 length 5102 ft width 100 ft
---- / hdg 57

(B) RW 24 length 5102 ft width 100 ft
ILS 111.10 / hdg 237

Location; KCGF
Day. 22 / Time. 21.45 Zulu
* Altimeter: 30.03
* Temperature: 06° c. 42.8°f.
* Wind from: 290° Speed 16 kn with Gusts up to 23 kn.
Dewpoint: -03° c.
Visibility: 10 Statute Miles.
Clouds: Scattered 4000 ft.
Clouds: Overcast 7500 ft.

KCGF 222145Z 29016G23KT 10SM SCT040 OVC075 06/M03 A3003

Going to: --> -->


Wind From 290°
Speed 16 kn.

 
 
jpsmedia worldairports.se 2021   terms of use